sensor_id;sensor_type;location;lat;lon;timestamp;temperature;humidity
33955;DHT22;20233;50.804;7.126;2024-02-23T00:00:30;6.80;99.90
33955;DHT22;20233;50.804;7.126;2024-02-23T00:02:56;6.60;99.90
33955;DHT22;20233;50.804;7.126;2024-02-23T00:05:23;6.70;99.90
33955;DHT22;20233;50.804;7.126;2024-02-23T00:07:49;6.60;99.90
33955;DHT22;20233;50.804;7.126;2024-02-23T00:10:15;6.60;99.90
33955;DHT22;20233;50.804;7.126;2024-02-23T00:12:41;6.60;99.90
33955;DHT22;20233;50.804;7.126;2024-02-23T00:15:07;6.60;99.90
33955;DHT22;20233;50.804;7.126;2024-02-23T00:17:33;6.60;99.90
33955;DHT22;20233;50.804;7.126;2024-02-23T00:19:58;6.60;99.90
33955;DHT22;20233;50.804;7.126;2024-02-23T00:22:24;6.60;99.90
33955;DHT22;20233;50.804;7.126;2024-02-23T00:24:51;6.70;99.90
33955;DHT22;20233;50.804;7.126;2024-02-23T00:27:17;6.50;99.90
33955;DHT22;20233;50.804;7.126;2024-02-23T00:29:42;6.60;99.90
33955;DHT22;20233;50.804;7.126;2024-02-23T00:32:08;6.70;99.90
33955;DHT22;20233;50.804;7.126;2024-02-23T00:34:34;6.70;99.90
33955;DHT22;20233;50.804;7.126;2024-02-23T00:36:59;6.70;99.90
33955;DHT22;20233;50.804;7.126;2024-02-23T00:39:25;6.70;99.90
33955;DHT22;20233;50.804;7.126;2024-02-23T00:41:51;6.60;99.90
33955;DHT22;20233;50.804;7.126;2024-02-23T00:44:16;6.60;99.90
33955;DHT22;20233;50.804;7.126;2024-02-23T00:46:42;6.60;99.90
33955;DHT22;20233;50.804;7.126;2024-02-23T00:49:08;6.60;99.90
33955;DHT22;20233;50.804;7.126;2024-02-23T00:51:34;6.50;99.90
33955;DHT22;20233;50.804;7.126;2024-02-23T00:54:00;6.50;99.90
33955;DHT22;20233;50.804;7.126;2024-02-23T00:56:25;6.50;99.90
33955;DHT22;20233;50.804;7.126;2024-02-23T00:58:51;6.50;99.90
33955;DHT22;20233;50.804;7.126;2024-02-23T01:01:17;6.50;99.90
33955;DHT22;20233;50.804;7.126;2024-02-23T01:03:42;6.30;99.90
33955;DHT22;20233;50.804;7.126;2024-02-23T01:06:08;6.40;99.90
33955;DHT22;20233;50.804;7.126;2024-02-23T01:08:34;6.40;99.90
33955;DHT22;20233;50.804;7.126;2024-02-23T01:11:01;6.40;99.90
33955;DHT22;20233;50.804;7.126;2024-02-23T01:13:26;6.40;99.90
33955;DHT22;20233;50.804;7.126;2024-02-23T01:15:52;6.40;99.90
33955;DHT22;20233;50.804;7.126;2024-02-23T01:18:19;6.30;99.90
33955;DHT22;20233;50.804;7.126;2024-02-23T01:20:45;6.40;99.90
33955;DHT22;20233;50.804;7.126;2024-02-23T01:23:11;6.40;99.90
33955;DHT22;20233;50.804;7.126;2024-02-23T01:25:36;6.40;99.90
33955;DHT22;20233;50.804;7.126;2024-02-23T01:28:03;6.50;99.90
33955;DHT22;20233;50.804;7.126;2024-02-23T01:30:29;6.50;99.90
33955;DHT22;20233;50.804;7.126;2024-02-23T01:32:54;6.50;99.90
33955;DHT22;20233;50.804;7.126;2024-02-23T01:35:20;6.40;99.90
33955;DHT22;20233;50.804;7.126;2024-02-23T01:37:46;6.40;99.90
33955;DHT22;20233;50.804;7.126;2024-02-23T01:40:11;6.50;99.90
33955;DHT22;20233;50.804;7.126;2024-02-23T01:42:38;6.40;99.90
33955;DHT22;20233;50.804;7.126;2024-02-23T01:45:04;6.40;99.90
33955;DHT22;20233;50.804;7.126;2024-02-23T01:47:30;6.40;99.90
33955;DHT22;20233;50.804;7.126;2024-02-23T01:49:57;6.20;99.90
33955;DHT22;20233;50.804;7.126;2024-02-23T01:52:24;6.30;99.90
33955;DHT22;20233;50.804;7.126;2024-02-23T01:54:50;6.20;99.90
33955;DHT22;20233;50.804;7.126;2024-02-23T01:57:16;6.20;99.90
33955;DHT22;20233;50.804;7.126;2024-02-23T01:59:42;6.20;99.90
33955;DHT22;20233;50.804;7.126;2024-02-23T02:02:08;6.20;99.90
33955;DHT22;20233;50.804;7.126;2024-02-23T02:04:34;6.20;99.90
33955;DHT22;20233;50.804;7.126;2024-02-23T02:07:01;6.10;99.90
33955;DHT22;20233;50.804;7.126;2024-02-23T02:09:27;6.20;99.90
33955;DHT22;20233;50.804;7.126;2024-02-23T02:11:52;6.10;99.90
33955;DHT22;20233;50.804;7.126;2024-02-23T02:14:18;6.10;99.90
33955;DHT22;20233;50.804;7.126;2024-02-23T02:16:47;6.20;99.90
33955;DHT22;20233;50.804;7.126;2024-02-23T02:19:14;6.20;99.90
33955;DHT22;20233;50.804;7.126;2024-02-23T02:21:43;6.20;99.90
33955;DHT22;20233;50.804;7.126;2024-02-23T02:24:09;6.10;99.90
33955;DHT22;20233;50.804;7.126;2024-02-23T02:26:35;6.20;99.90
33955;DHT22;20233;50.804;7.126;2024-02-23T02:29:02;6.00;99.90
33955;DHT22;20233;50.804;7.126;2024-02-23T02:31:29;6.10;99.90
33955;DHT22;20233;50.804;7.126;2024-02-23T02:33:54;6.10;99.90
33955;DHT22;20233;50.804;7.126;2024-02-23T02:36:20;6.10;99.90
33955;DHT22;20233;50.804;7.126;2024-02-23T02:38:46;6.10;99.90
33955;DHT22;20233;50.804;7.126;2024-02-23T02:41:11;6.00;99.90
33955;DHT22;20233;50.804;7.126;2024-02-23T02:43:37;5.90;99.90
33955;DHT22;20233;50.804;7.126;2024-02-23T02:46:03;5.90;99.90
33955;DHT22;20233;50.804;7.126;2024-02-23T02:48:31;6.00;99.90
33955;DHT22;20233;50.804;7.126;2024-02-23T02:50:57;6.00;99.90
33955;DHT22;20233;50.804;7.126;2024-02-23T02:53:22;6.10;99.90
33955;DHT22;20233;50.804;7.126;2024-02-23T02:55:48;6.00;99.90
33955;DHT22;20233;50.804;7.126;2024-02-23T02:58:14;6.00;99.90
33955;DHT22;20233;50.804;7.126;2024-02-23T03:00:39;6.00;99.90
33955;DHT22;20233;50.804;7.126;2024-02-23T03:03:06;5.90;99.90
33955;DHT22;20233;50.804;7.126;2024-02-23T03:05:31;5.90;99.90
33955;DHT22;20233;50.804;7.126;2024-02-23T03:07:57;5.90;99.90
33955;DHT22;20233;50.804;7.126;2024-02-23T03:10:23;5.90;99.90
33955;DHT22;20233;50.804;7.126;2024-02-23T03:12:48;6.00;99.90
33955;DHT22;20233;50.804;7.126;2024-02-23T03:15:14;6.00;99.90
33955;DHT22;20233;50.804;7.126;2024-02-23T03:17:40;6.00;99.90
33955;DHT22;20233;50.804;7.126;2024-02-23T03:20:06;6.00;99.90
33955;DHT22;20233;50.804;7.126;2024-02-23T03:22:35;5.90;99.90
33955;DHT22;20233;50.804;7.126;2024-02-23T03:25:02;5.90;99.90
33955;DHT22;20233;50.804;7.126;2024-02-23T03:27:34;5.90;99.90
33955;DHT22;20233;50.804;7.126;2024-02-23T03:29:59;5.80;99.90
33955;DHT22;20233;50.804;7.126;2024-02-23T03:32:25;5.90;99.90
33955;DHT22;20233;50.804;7.126;2024-02-23T03:34:51;5.90;99.90
33955;DHT22;20233;50.804;7.126;2024-02-23T03:37:16;5.90;99.90
33955;DHT22;20233;50.804;7.126;2024-02-23T03:39:45;5.80;99.90
33955;DHT22;20233;50.804;7.126;2024-02-23T03:42:11;5.80;99.90
33955;DHT22;20233;50.804;7.126;2024-02-23T03:44:36;5.80;99.90
33955;DHT22;20233;50.804;7.126;2024-02-23T03:47:02;5.80;99.90
33955;DHT22;20233;50.804;7.126;2024-02-23T03:49:28;5.70;99.90
33955;DHT22;20233;50.804;7.126;2024-02-23T03:51:53;5.70;99.90
33955;DHT22;20233;50.804;7.126;2024-02-23T03:54:19;5.70;99.90
33955;DHT22;20233;50.804;7.126;2024-02-23T03:56:44;5.70;99.90
33955;DHT22;20233;50.804;7.126;2024-02-23T03:59:10;5.70;99.90
33955;DHT22;20233;50.804;7.126;2024-02-23T04:01:37;5.70;99.90
33955;DHT22;20233;50.804;7.126;2024-02-23T04:04:03;5.70;99.90
33955;DHT22;20233;50.804;7.126;2024-02-23T04:06:29;5.70;99.90
33955;DHT22;20233;50.804;7.126;2024-02-23T04:08:57;5.70;99.90
33955;DHT22;20233;50.804;7.126;2024-02-23T04:11:22;5.70;99.90
33955;DHT22;20233;50.804;7.126;2024-02-23T04:13:48;5.70;99.90
33955;DHT22;20233;50.804;7.126;2024-02-23T04:16:14;5.70;99.90
33955;DHT22;20233;50.804;7.126;2024-02-23T04:18:39;5.70;99.90
33955;DHT22;20233;50.804;7.126;2024-02-23T04:21:08;5.70;99.90
33955;DHT22;20233;50.804;7.126;2024-02-23T04:23:34;5.70;99.90
33955;DHT22;20233;50.804;7.126;2024-02-23T04:25:59;5.60;99.90
33955;DHT22;20233;50.804;7.126;2024-02-23T04:28:25;5.50;99.90
33955;DHT22;20233;50.804;7.126;2024-02-23T04:30:53;5.50;99.90
33955;DHT22;20233;50.804;7.126;2024-02-23T04:33:19;5.50;99.90
33955;DHT22;20233;50.804;7.126;2024-02-23T04:35:44;5.50;99.90
33955;DHT22;20233;50.804;7.126;2024-02-23T04:38:10;5.50;99.90
33955;DHT22;20233;50.804;7.126;2024-02-23T04:40:36;5.50;99.90
33955;DHT22;20233;50.804;7.126;2024-02-23T04:43:02;5.50;99.90
33955;DHT22;20233;50.804;7.126;2024-02-23T04:45:28;5.50;99.90
33955;DHT22;20233;50.804;7.126;2024-02-23T04:47:53;5.50;99.90
33955;DHT22;20233;50.804;7.126;2024-02-23T04:50:19;5.50;99.90
33955;DHT22;20233;50.804;7.126;2024-02-23T04:52:45;5.40;99.90
33955;DHT22;20233;50.804;7.126;2024-02-23T04:55:10;5.40;99.90
33955;DHT22;20233;50.804;7.126;2024-02-23T04:57:37;5.40;99.90
33955;DHT22;20233;50.804;7.126;2024-02-23T05:00:07;5.40;99.90
33955;DHT22;20233;50.804;7.126;2024-02-23T05:02:33;5.40;99.90
33955;DHT22;20233;50.804;7.126;2024-02-23T05:05:02;5.40;99.90
33955;DHT22;20233;50.804;7.126;2024-02-23T05:07:33;5.40;99.90
33955;DHT22;20233;50.804;7.126;2024-02-23T05:09:59;5.40;99.90
33955;DHT22;20233;50.804;7.126;2024-02-23T05:12:25;5.30;99.90
33955;DHT22;20233;50.804;7.126;2024-02-23T05:14:51;5.30;99.90
33955;DHT22;20233;50.804;7.126;2024-02-23T05:17:17;5.30;99.90
33955;DHT22;20233;50.804;7.126;2024-02-23T05:19:43;5.30;99.90
33955;DHT22;20233;50.804;7.126;2024-02-23T05:22:08;5.20;99.90
33955;DHT22;20233;50.804;7.126;2024-02-23T05:24:34;5.20;99.90
33955;DHT22;20233;50.804;7.126;2024-02-23T05:27:00;5.10;99.90
33955;DHT22;20233;50.804;7.126;2024-02-23T05:29:27;5.10;99.90
33955;DHT22;20233;50.804;7.126;2024-02-23T05:31:53;5.10;99.90
33955;DHT22;20233;50.804;7.126;2024-02-23T05:34:19;5.00;99.90
33955;DHT22;20233;50.804;7.126;2024-02-23T05:36:45;5.00;99.90
33955;DHT22;20233;50.804;7.126;2024-02-23T05:39:12;5.00;99.90
33955;DHT22;20233;50.804;7.126;2024-02-23T05:41:38;5.00;99.90
33955;DHT22;20233;50.804;7.126;2024-02-23T05:44:04;5.10;99.90
33955;DHT22;20233;50.804;7.126;2024-02-23T05:46:35;5.10;99.90
33955;DHT22;20233;50.804;7.126;2024-02-23T05:49:01;5.00;99.90
33955;DHT22;20233;50.804;7.126;2024-02-23T05:51:28;5.00;99.90
33955;DHT22;20233;50.804;7.126;2024-02-23T05:54:00;5.00;99.90
33955;DHT22;20233;50.804;7.126;2024-02-23T05:56:29;5.00;99.90
33955;DHT22;20233;50.804;7.126;2024-02-23T05:58:54;5.10;99.90
33955;DHT22;20233;50.804;7.126;2024-02-23T06:01:20;5.00;99.90
33955;DHT22;20233;50.804;7.126;2024-02-23T06:03:46;5.10;99.90
33955;DHT22;20233;50.804;7.126;2024-02-23T06:06:12;5.10;99.90
33955;DHT22;20233;50.804;7.126;2024-02-23T06:08:37;5.10;99.90
33955;DHT22;20233;50.804;7.126;2024-02-23T06:11:03;5.10;99.90
33955;DHT22;20233;50.804;7.126;2024-02-23T06:13:30;5.10;99.90
33955;DHT22;20233;50.804;7.126;2024-02-23T06:15:56;5.10;99.90
33955;DHT22;20233;50.804;7.126;2024-02-23T06:18:22;5.10;99.90
33955;DHT22;20233;50.804;7.126;2024-02-23T06:20:51;5.10;99.90
33955;DHT22;20233;50.804;7.126;2024-02-23T06:23:17;5.10;99.90
33955;DHT22;20233;50.804;7.126;2024-02-23T06:25:43;5.10;99.90
33955;DHT22;20233;50.804;7.126;2024-02-23T06:28:11;5.10;99.90
33955;DHT22;20233;50.804;7.126;2024-02-23T06:30:37;5.20;99.90
33955;DHT22;20233;50.804;7.126;2024-02-23T06:33:03;5.30;99.90
33955;DHT22;20233;50.804;7.126;2024-02-23T06:35:29;5.30;99.90
33955;DHT22;20233;50.804;7.126;2024-02-23T06:37:59;5.30;99.90
33955;DHT22;20233;50.804;7.126;2024-02-23T06:40:25;5.40;99.90
33955;DHT22;20233;50.804;7.126;2024-02-23T06:42:50;5.40;99.90
33955;DHT22;20233;50.804;7.126;2024-02-23T06:45:16;5.50;99.90
33955;DHT22;20233;50.804;7.126;2024-02-23T06:47:44;5.50;99.90
33955;DHT22;20233;50.804;7.126;2024-02-23T06:50:10;5.50;99.90
33955;DHT22;20233;50.804;7.126;2024-02-23T06:52:36;5.60;99.90
33955;DHT22;20233;50.804;7.126;2024-02-23T06:55:03;5.60;99.90
33955;DHT22;20233;50.804;7.126;2024-02-23T06:57:30;5.60;99.90
33955;DHT22;20233;50.804;7.126;2024-02-23T06:59:56;5.60;99.90
33955;DHT22;20233;50.804;7.126;2024-02-23T07:02:22;5.60;99.90
33955;DHT22;20233;50.804;7.126;2024-02-23T07:04:48;5.60;99.90
33955;DHT22;20233;50.804;7.126;2024-02-23T07:07:14;5.60;99.90
33955;DHT22;20233;50.804;7.126;2024-02-23T07:09:39;5.70;99.90
33955;DHT22;20233;50.804;7.126;2024-02-23T07:12:06;5.70;99.90
33955;DHT22;20233;50.804;7.126;2024-02-23T07:14:32;5.70;99.90
33955;DHT22;20233;50.804;7.126;2024-02-23T07:16:58;5.80;99.90
33955;DHT22;20233;50.804;7.126;2024-02-23T07:19:26;5.70;99.90
33955;DHT22;20233;50.804;7.126;2024-02-23T07:21:52;5.80;99.90
33955;DHT22;20233;50.804;7.126;2024-02-23T07:24:18;5.80;99.90
33955;DHT22;20233;50.804;7.126;2024-02-23T07:26:43;5.90;99.90
33955;DHT22;20233;50.804;7.126;2024-02-23T07:29:09;5.90;99.90
33955;DHT22;20233;50.804;7.126;2024-02-23T07:31:34;5.90;99.90
33955;DHT22;20233;50.804;7.126;2024-02-23T07:34:00;5.90;99.90
33955;DHT22;20233;50.804;7.126;2024-02-23T07:36:26;5.90;99.90
33955;DHT22;20233;50.804;7.126;2024-02-23T07:38:51;6.00;99.90
33955;DHT22;20233;50.804;7.126;2024-02-23T07:41:17;6.10;99.90
33955;DHT22;20233;50.804;7.126;2024-02-23T07:43:45;6.20;99.90
33955;DHT22;20233;50.804;7.126;2024-02-23T07:46:12;6.20;99.90
33955;DHT22;20233;50.804;7.126;2024-02-23T07:48:38;6.20;99.90
33955;DHT22;20233;50.804;7.126;2024-02-23T07:51:05;6.20;99.90
33955;DHT22;20233;50.804;7.126;2024-02-23T07:53:31;6.20;99.90
33955;DHT22;20233;50.804;7.126;2024-02-23T07:55:59;6.30;99.90
33955;DHT22;20233;50.804;7.126;2024-02-23T07:58:27;6.30;99.90
33955;DHT22;20233;50.804;7.126;2024-02-23T08:00:53;6.30;99.90
33955;DHT22;20233;50.804;7.126;2024-02-23T08:03:19;6.30;99.90
33955;DHT22;20233;50.804;7.126;2024-02-23T08:05:45;6.40;99.90
33955;DHT22;20233;50.804;7.126;2024-02-23T08:08:10;6.40;99.90
33955;DHT22;20233;50.804;7.126;2024-02-23T08:10:36;6.40;99.90
33955;DHT22;20233;50.804;7.126;2024-02-23T08:13:02;6.50;99.90
33955;DHT22;20233;50.804;7.126;2024-02-23T08:15:28;6.50;99.90
33955;DHT22;20233;50.804;7.126;2024-02-23T08:17:53;6.50;99.90
33955;DHT22;20233;50.804;7.126;2024-02-23T08:20:19;6.60;99.90
33955;DHT22;20233;50.804;7.126;2024-02-23T08:22:46;6.70;99.90
33955;DHT22;20233;50.804;7.126;2024-02-23T08:25:12;6.80;99.90
33955;DHT22;20233;50.804;7.126;2024-02-23T08:27:38;6.90;99.90
33955;DHT22;20233;50.804;7.126;2024-02-23T08:30:04;7.00;99.90
33955;DHT22;20233;50.804;7.126;2024-02-23T08:32:29;7.00;99.90
33955;DHT22;20233;50.804;7.126;2024-02-23T08:34:55;7.00;99.90
33955;DHT22;20233;50.804;7.126;2024-02-23T08:37:25;7.00;99.90
33955;DHT22;20233;50.804;7.126;2024-02-23T08:39:51;7.10;99.90
33955;DHT22;20233;50.804;7.126;2024-02-23T08:42:17;7.20;99.90
33955;DHT22;20233;50.804;7.126;2024-02-23T08:44:43;7.20;99.90
33955;DHT22;20233;50.804;7.126;2024-02-23T08:47:08;7.30;99.90
33955;DHT22;20233;50.804;7.126;2024-02-23T08:49:34;7.40;99.90
33955;DHT22;20233;50.804;7.126;2024-02-23T08:52:00;7.40;99.90
33955;DHT22;20233;50.804;7.126;2024-02-23T08:54:26;7.50;99.90
33955;DHT22;20233;50.804;7.126;2024-02-23T08:56:51;7.60;99.90
33955;DHT22;20233;50.804;7.126;2024-02-23T08:59:17;7.60;99.90
33955;DHT22;20233;50.804;7.126;2024-02-23T09:01:42;7.70;99.90
33955;DHT22;20233;50.804;7.126;2024-02-23T09:04:09;7.80;99.90
33955;DHT22;20233;50.804;7.126;2024-02-23T09:06:35;7.80;99.90
33955;DHT22;20233;50.804;7.126;2024-02-23T09:09:01;7.90;99.90
33955;DHT22;20233;50.804;7.126;2024-02-23T09:11:26;7.90;99.90
33955;DHT22;20233;50.804;7.126;2024-02-23T09:13:52;7.90;99.90
33955;DHT22;20233;50.804;7.126;2024-02-23T09:16:18;8.00;99.90
33955;DHT22;20233;50.804;7.126;2024-02-23T09:18:44;8.00;99.90
33955;DHT22;20233;50.804;7.126;2024-02-23T09:21:10;8.00;99.90
33955;DHT22;20233;50.804;7.126;2024-02-23T09:23:35;7.90;99.90
33955;DHT22;20233;50.804;7.126;2024-02-23T09:26:01;8.00;99.90
33955;DHT22;20233;50.804;7.126;2024-02-23T09:28:29;8.00;99.90
33955;DHT22;20233;50.804;7.126;2024-02-23T09:30:55;8.00;99.90
33955;DHT22;20233;50.804;7.126;2024-02-23T09:33:20;8.00;99.90
33955;DHT22;20233;50.804;7.126;2024-02-23T09:35:46;8.00;99.90
33955;DHT22;20233;50.804;7.126;2024-02-23T09:38:12;8.10;99.90
33955;DHT22;20233;50.804;7.126;2024-02-23T09:40:39;8.20;99.90
33955;DHT22;20233;50.804;7.126;2024-02-23T09:43:08;8.30;99.90
33955;DHT22;20233;50.804;7.126;2024-02-23T09:45:34;8.30;99.90
33955;DHT22;20233;50.804;7.126;2024-02-23T09:48:00;8.40;99.90
33955;DHT22;20233;50.804;7.126;2024-02-23T09:50:29;8.50;99.90
33955;DHT22;20233;50.804;7.126;2024-02-23T09:52:58;8.50;99.90
33955;DHT22;20233;50.804;7.126;2024-02-23T09:55:24;8.40;99.90
33955;DHT22;20233;50.804;7.126;2024-02-23T09:57:52;8.50;99.90
33955;DHT22;20233;50.804;7.126;2024-02-23T10:00:23;8.60;99.90
33955;DHT22;20233;50.804;7.126;2024-02-23T10:02:49;8.60;99.90
33955;DHT22;20233;50.804;7.126;2024-02-23T10:05:16;8.70;99.90
33955;DHT22;20233;50.804;7.126;2024-02-23T10:07:42;8.70;99.90
33955;DHT22;20233;50.804;7.126;2024-02-23T10:10:09;8.70;99.90
33955;DHT22;20233;50.804;7.126;2024-02-23T10:12:36;8.80;99.90
33955;DHT22;20233;50.804;7.126;2024-02-23T10:15:03;8.90;99.90
33955;DHT22;20233;50.804;7.126;2024-02-23T10:17:30;8.90;99.90
33955;DHT22;20233;50.804;7.126;2024-02-23T10:19:55;8.90;99.90
33955;DHT22;20233;50.804;7.126;2024-02-23T10:22:24;9.00;99.90
33955;DHT22;20233;50.804;7.126;2024-02-23T10:24:51;9.00;99.90
33955;DHT22;20233;50.804;7.126;2024-02-23T10:27:17;8.90;99.90
33955;DHT22;20233;50.804;7.126;2024-02-23T10:29:43;9.00;99.90
33955;DHT22;20233;50.804;7.126;2024-02-23T10:32:11;9.10;99.90
33955;DHT22;20233;50.804;7.126;2024-02-23T10:34:42;9.20;99.90
33955;DHT22;20233;50.804;7.126;2024-02-23T10:37:08;9.10;99.90
33955;DHT22;20233;50.804;7.126;2024-02-23T10:39:36;9.20;99.90
33955;DHT22;20233;50.804;7.126;2024-02-23T10:42:04;9.20;99.90
33955;DHT22;20233;50.804;7.126;2024-02-23T10:44:31;9.30;99.90
33955;DHT22;20233;50.804;7.126;2024-02-23T10:46:58;9.30;99.90
33955;DHT22;20233;50.804;7.126;2024-02-23T10:49:28;9.50;99.90
33955;DHT22;20233;50.804;7.126;2024-02-23T10:51:54;9.40;99.90
33955;DHT22;20233;50.804;7.126;2024-02-23T10:54:20;9.50;99.90
33955;DHT22;20233;50.804;7.126;2024-02-23T10:56:48;9.50;99.90
33955;DHT22;20233;50.804;7.126;2024-02-23T10:59:14;9.60;99.90
33955;DHT22;20233;50.804;7.126;2024-02-23T11:01:51;9.60;99.90
33955;DHT22;20233;50.804;7.126;2024-02-23T11:04:19;9.60;99.90
33955;DHT22;20233;50.804;7.126;2024-02-23T11:06:59;9.50;99.90
33955;DHT22;20233;50.804;7.126;2024-02-23T11:09:31;9.60;99.90
33955;DHT22;20233;50.804;7.126;2024-02-23T11:11:58;9.60;99.90
33955;DHT22;20233;50.804;7.126;2024-02-23T11:14:34;9.60;99.90
33955;DHT22;20233;50.804;7.126;2024-02-23T11:17:01;9.50;99.90
33955;DHT22;20233;50.804;7.126;2024-02-23T11:19:38;9.50;99.90
33955;DHT22;20233;50.804;7.126;2024-02-23T11:22:05;9.50;99.90
33955;DHT22;20233;50.804;7.126;2024-02-23T11:24:31;9.40;99.90
33955;DHT22;20233;50.804;7.126;2024-02-23T11:26:58;9.50;99.90
33955;DHT22;20233;50.804;7.126;2024-02-23T11:29:28;9.50;99.90
33955;DHT22;20233;50.804;7.126;2024-02-23T11:31:55;9.60;99.90
33955;DHT22;20233;50.804;7.126;2024-02-23T11:34:26;9.70;99.90
33955;DHT22;20233;50.804;7.126;2024-02-23T11:36:56;9.80;99.90
33955;DHT22;20233;50.804;7.126;2024-02-23T11:39:26;9.90;99.90
33955;DHT22;20233;50.804;7.126;2024-02-23T11:41:52;10.00;99.90
33955;DHT22;20233;50.804;7.126;2024-02-23T11:44:22;9.90;99.90
33955;DHT22;20233;50.804;7.126;2024-02-23T11:46:48;9.80;99.90
33955;DHT22;20233;50.804;7.126;2024-02-23T11:49:16;9.90;99.90
33955;DHT22;20233;50.804;7.126;2024-02-23T11:51:42;9.90;99.90
33955;DHT22;20233;50.804;7.126;2024-02-23T11:54:08;9.90;99.90
33955;DHT22;20233;50.804;7.126;2024-02-23T11:56:34;9.90;99.90
33955;DHT22;20233;50.804;7.126;2024-02-23T11:59:00;10.00;99.90
33955;DHT22;20233;50.804;7.126;2024-02-23T12:01:29;10.00;99.90
33955;DHT22;20233;50.804;7.126;2024-02-23T12:03:55;10.00;99.90
33955;DHT22;20233;50.804;7.126;2024-02-23T12:06:21;10.00;99.90
33955;DHT22;20233;50.804;7.126;2024-02-23T12:08:50;10.00;99.90
33955;DHT22;20233;50.804;7.126;2024-02-23T12:11:16;10.00;99.90
33955;DHT22;20233;50.804;7.126;2024-02-23T12:13:42;10.10;99.90
33955;DHT22;20233;50.804;7.126;2024-02-23T12:16:08;10.20;99.90
33955;DHT22;20233;50.804;7.126;2024-02-23T12:18:35;10.20;99.90
33955;DHT22;20233;50.804;7.126;2024-02-23T12:21:02;10.20;99.90
33955;DHT22;20233;50.804;7.126;2024-02-23T12:23:42;10.10;99.90
33955;DHT22;20233;50.804;7.126;2024-02-23T12:26:09;10.20;99.90
33955;DHT22;20233;50.804;7.126;2024-02-23T12:28:36;10.20;99.90
33955;DHT22;20233;50.804;7.126;2024-02-23T12:31:03;10.30;99.90
33955;DHT22;20233;50.804;7.126;2024-02-23T12:33:31;10.30;99.90
33955;DHT22;20233;50.804;7.126;2024-02-23T12:35:58;10.20;99.90
33955;DHT22;20233;50.804;7.126;2024-02-23T12:38:24;10.20;99.90
33955;DHT22;20233;50.804;7.126;2024-02-23T12:40:51;10.20;99.90
33955;DHT22;20233;50.804;7.126;2024-02-23T12:43:17;10.20;99.90
33955;DHT22;20233;50.804;7.126;2024-02-23T12:45:47;10.20;99.90
33955;DHT22;20233;50.804;7.126;2024-02-23T12:48:15;10.20;99.90
33955;DHT22;20233;50.804;7.126;2024-02-23T12:50:41;10.20;99.90
33955;DHT22;20233;50.804;7.126;2024-02-23T12:53:08;10.00;99.90
33955;DHT22;20233;50.804;7.126;2024-02-23T12:55:35;10.00;99.90
33955;DHT22;20233;50.804;7.126;2024-02-23T12:58:02;10.00;99.90
33955;DHT22;20233;50.804;7.126;2024-02-23T13:00:28;10.00;99.90
33955;DHT22;20233;50.804;7.126;2024-02-23T13:02:54;10.00;99.90
33955;DHT22;20233;50.804;7.126;2024-02-23T13:05:22;10.10;99.90
33955;DHT22;20233;50.804;7.126;2024-02-23T13:07:48;10.20;99.90
33955;DHT22;20233;50.804;7.126;2024-02-23T13:10:14;10.20;99.90
33955;DHT22;20233;50.804;7.126;2024-02-23T13:12:40;10.20;99.90
33955;DHT22;20233;50.804;7.126;2024-02-23T13:15:06;10.30;99.90
33955;DHT22;20233;50.804;7.126;2024-02-23T13:17:32;10.30;99.90
33955;DHT22;20233;50.804;7.126;2024-02-23T13:19:57;10.30;99.90
33955;DHT22;20233;50.804;7.126;2024-02-23T13:22:23;10.30;99.90
33955;DHT22;20233;50.804;7.126;2024-02-23T13:24:49;10.40;99.90
33955;DHT22;20233;50.804;7.126;2024-02-23T13:27:18;10.40;99.90
33955;DHT22;20233;50.804;7.126;2024-02-23T13:29:44;10.40;99.90
33955;DHT22;20233;50.804;7.126;2024-02-23T13:32:10;10.40;99.90
33955;DHT22;20233;50.804;7.126;2024-02-23T13:34:36;10.50;99.90
33955;DHT22;20233;50.804;7.126;2024-02-23T13:37:02;10.60;99.90
33955;DHT22;20233;50.804;7.126;2024-02-23T13:41:57;10.70;99.90
33955;DHT22;20233;50.804;7.126;2024-02-23T13:44:22;10.70;99.90
33955;DHT22;20233;50.804;7.126;2024-02-23T13:46:48;10.70;99.90
33955;DHT22;20233;50.804;7.126;2024-02-23T13:49:13;10.70;99.90
33955;DHT22;20233;50.804;7.126;2024-02-23T13:51:39;10.60;99.90
33955;DHT22;20233;50.804;7.126;2024-02-23T13:54:05;10.60;99.90
33955;DHT22;20233;50.804;7.126;2024-02-23T13:56:30;10.60;99.90
33955;DHT22;20233;50.804;7.126;2024-02-23T13:58:56;10.60;99.90
33955;DHT22;20233;50.804;7.126;2024-02-23T14:01:22;10.60;99.90
33955;DHT22;20233;50.804;7.126;2024-02-23T14:03:47;10.70;99.90
33955;DHT22;20233;50.804;7.126;2024-02-23T14:06:13;10.80;99.90
33955;DHT22;20233;50.804;7.126;2024-02-23T14:08:38;10.90;99.90
33955;DHT22;20233;50.804;7.126;2024-02-23T14:11:04;10.90;99.90
33955;DHT22;20233;50.804;7.126;2024-02-23T14:13:33;10.90;99.90
33955;DHT22;20233;50.804;7.126;2024-02-23T14:15:59;11.00;99.90
33955;DHT22;20233;50.804;7.126;2024-02-23T14:18:24;10.90;99.90
33955;DHT22;20233;50.804;7.126;2024-02-23T14:20:50;10.80;99.90
33955;DHT22;20233;50.804;7.126;2024-02-23T14:23:17;10.80;99.90
33955;DHT22;20233;50.804;7.126;2024-02-23T14:25:43;10.70;99.90
33955;DHT22;20233;50.804;7.126;2024-02-23T14:28:09;10.60;99.90
33955;DHT22;20233;50.804;7.126;2024-02-23T14:30:35;10.70;99.90
33955;DHT22;20233;50.804;7.126;2024-02-23T14:33:00;10.80;99.90
33955;DHT22;20233;50.804;7.126;2024-02-23T14:35:26;10.90;99.90
33955;DHT22;20233;50.804;7.126;2024-02-23T14:37:52;10.90;99.90
33955;DHT22;20233;50.804;7.126;2024-02-23T14:40:17;10.90;99.90
33955;DHT22;20233;50.804;7.126;2024-02-23T14:42:43;10.90;99.90
33955;DHT22;20233;50.804;7.126;2024-02-23T14:45:09;11.00;99.90
33955;DHT22;20233;50.804;7.126;2024-02-23T14:47:36;11.00;99.90
33955;DHT22;20233;50.804;7.126;2024-02-23T14:50:02;11.10;99.90
33955;DHT22;20233;50.804;7.126;2024-02-23T14:52:28;11.20;99.90
33955;DHT22;20233;50.804;7.126;2024-02-23T14:54:53;11.10;99.90
33955;DHT22;20233;50.804;7.126;2024-02-23T14:57:19;11.20;99.90
33955;DHT22;20233;50.804;7.126;2024-02-23T14:59:45;11.30;99.90
33955;DHT22;20233;50.804;7.126;2024-02-23T15:02:19;11.30;99.90
33955;DHT22;20233;50.804;7.126;2024-02-23T15:04:45;11.40;99.90
33955;DHT22;20233;50.804;7.126;2024-02-23T15:07:11;11.40;99.90
33955;DHT22;20233;50.804;7.126;2024-02-23T15:09:37;11.40;99.90
33955;DHT22;20233;50.804;7.126;2024-02-23T15:12:03;11.40;99.90
33955;DHT22;20233;50.804;7.126;2024-02-23T15:14:28;11.40;99.90
33955;DHT22;20233;50.804;7.126;2024-02-23T15:16:54;11.40;99.90
33955;DHT22;20233;50.804;7.126;2024-02-23T15:19:20;11.20;99.90
33955;DHT22;20233;50.804;7.126;2024-02-23T15:21:48;11.30;99.90
33955;DHT22;20233;50.804;7.126;2024-02-23T15:24:14;11.10;99.90
33955;DHT22;20233;50.804;7.126;2024-02-23T15:26:43;11.00;99.90
33955;DHT22;20233;50.804;7.126;2024-02-23T15:29:09;10.90;99.90
33955;DHT22;20233;50.804;7.126;2024-02-23T15:31:35;10.90;99.90
33955;DHT22;20233;50.804;7.126;2024-02-23T15:34:01;11.00;99.90
33955;DHT22;20233;50.804;7.126;2024-02-23T15:36:27;10.90;99.90
33955;DHT22;20233;50.804;7.126;2024-02-23T15:38:53;10.90;99.90